Nearby METAR Reports

 

EDNY - Friedrichshafen, Germany
Distance from station: O 31km
aktuell: 31.07.2014 04:50
Mist, geschlossene Wolkendecke
Mist, geschlossene Wolkendecke
 Wind von varies
Wind: varies 2 km/h
Temperatur: 17°C
Taupunkt: 15°C
Luftfeuchte: 88%
Luftdruck: 1015 hPa
Zusammenfassung: Mist
Clouds: geschlossene Wolkendecke
Visibility: 5 km
Cloud details: geschlossene Wolkendecke 914 m
2014/07/31 02:50 EDNY 310250Z AUTO VRB01KT 5000 BR OVC030 17/15 Q1015
LSZR - Rheineck/Altenrh, Switzerland
Distance from station: SO 42km
aktuell: 31.07.2014 04:50
Drizzle, stark bewölkt
Drizzle, stark bewölkt
 Wind von W
Wind: W 7 km/h
Temperatur: 17°C
Taupunkt: 16°C
Luftfeuchte: 94%
Luftdruck: 1015 hPa
Zusammenfassung: Drizzle
Clouds: stark bewölkt
Visibility: 8 km
Cloud details: Few Clouds 335 m
stark bewölkt 488 m
2014/07/31 02:50 LSZR 310250Z AUTO 26004KT 210V300 8000 DZ FEW011 BKN016 17/16 Q1015
LSZH - Zurich-Kloten (a, Switzerland
Distance from station: WSW 49km
aktuell: 31.07.2014 04:50
stark bewölkt
stark bewölkt
 Wind von calm
Wind: Windstill
Temperatur: 17°C
Taupunkt: 17°C
Luftfeuchte: 100%
Luftdruck: 1016 hPa
Clouds: stark bewölkt
Visibility: 7 km
Cloud details: Few Clouds 762 m
stark bewölkt 1524 m
2014/07/31 02:50 LSZH 310250Z 00000KT 7000 FEW025 BKN050 17/17 Q1016 NOSIG
 
EDTD - Donaueschingen, Germany
Distance from station: NW 53km
aktuell: 30.04.2014 18:20
NOT Current
sehr leichter Niederschlag, geschlossene Wolkendecke
sehr leichter Niederschlag, geschlossene Wolkendecke
 Wind von SSW
Wind: SSW 9 km/h
Temperatur: 10°C
gefühlte Temperatur: 9°C
Taupunkt: 10°C
Luftfeuchte: 100%
Luftdruck: 1011 hPa
Zusammenfassung: sehr leichter Niederschlag
Clouds: geschlossene Wolkendecke
Visibility: 9 km
Cloud details: stark bewölkt 213 m
geschlossene Wolkendecke 335 m
2014/04/30 16:20 EDTD 301620Z 20005KT 9000 -RA BKN007 OVC011 10/10 Q1011 LAST ?
ETGZ - Messstetten, Germany
Distance from station: N 54km
aktuell: 30.09.2013 14:20
NOT Current
geschlossene Wolkendecke
geschlossene Wolkendecke
 Wind von varies
Wind: varies 4 km/h
Temperatur: 8°C
Taupunkt: 7°C
Luftfeuchte: 93%
Luftdruck: 1007 hPa
Clouds: geschlossene Wolkendecke
Visibility: 10 km
Cloud details: geschlossene Wolkendecke 213 m
2013/09/30 12:20 ETGZ 301220Z VRB02KT 9999 OVC007 08/07 Q1007 GRN
LOIH - Hohenems-Dornbir, Austria
Distance from station: SO 57km
aktuell: 30.07.2014 16:00
NOT Current
sehr leichter Niederschlag, stark bewölkt
sehr leichter Niederschlag, stark bewölkt
 Wind von NNO
Wind: NNO 6 km/h
Temperatur: 19°C
Taupunkt: 18°C
Luftfeuchte: 94%
Luftdruck: 1011 hPa
Zusammenfassung: sehr leichter Niederschlag
Clouds: stark bewölkt
Visibility: 6 km
Cloud details: teilweise bewölkt 152 m
stark bewölkt 305 m
2014/07/30 14:00 LOIH 301400Z 03003KT 6000 -RA SCT005SC BKN010SC 19/18 Q1011 RMK OVC
 
ETHL - Laupheim (ger-Ar, Germany
Distance from station: NO 84km
aktuell: 31.07.2014 04:20
stark bewölkt
stark bewölkt
 Wind von WNW
Wind: WNW 6 km/h
Temperatur: 16°C
Taupunkt: 15°C
Luftfeuchte: 94%
Luftdruck: 1015 hPa
Clouds: stark bewölkt
Visibility: 8 km
Cloud details: Few Clouds 457 m
stark bewölkt 1372 m
2014/07/31 02:20 ETHL 310220Z 30003KT 8000 FEW015 BKN045 16/15 Q1015 BLU
EDJA - Memmingen Allgau, Germany
Distance from station: ONO 90km
aktuell: 30.07.2014 21:20
NOT Current
geschlossene Wolkendecke
geschlossene Wolkendecke
 Wind von WSW
Wind: WSW 13 km/h
Temperatur: 16°C
Taupunkt: 15°C
Luftfeuchte: 94%
Luftdruck: 1013 hPa
Clouds: geschlossene Wolkendecke
Visibility: 10 km
Cloud details: geschlossene Wolkendecke 152 m
2014/07/30 19:20 EDJA 301920Z 24007KT 9999 OVC005 16/15 Q1013
LSME - Emmen, Switzerland
Distance from station: SW 90km
aktuell: 31.07.2014 04:50
geschlossene Wolkendecke
geschlossene Wolkendecke
 Wind von calm
Wind: Windstill
Temperatur: 17°C
Taupunkt: 17°C
Luftfeuchte: 100%
Luftdruck: 1016 hPa
Clouds: geschlossene Wolkendecke
Visibility: 8 miles
Cloud details: Few Clouds 792 m
geschlossene Wolkendecke 1341 m
2014/07/31 02:50 LSME 310250Z AUTO 00000KT 5000NDV FEW026 OVC044 17/17 Q1016 RMK GRN
 
LSZC - Buochs, Switzerland
Distance from station: SSW 98km
aktuell: 31.07.2014 04:50
stark bewölkt
stark bewölkt
 Wind von varies
Wind: varies 6 km/h
Temperatur: 18°C
Taupunkt: 16°C
Luftfeuchte: 88%
Luftdruck: 1016 hPa
Clouds: stark bewölkt
Visibility: 10 km
Cloud details: stark bewölkt 396 m
teilweise bewölkt 549 m
stark bewölkt 1219 m
2014/07/31 02:50 LSZC 310250Z AUTO VRB03KT 9999 BKN013 SCT018 BKN040 18/16 Q1016